createdAt,value
2022-10-17T00:00:49.942Z,16.23
2022-10-17T00:03:17.346Z,16.83
2022-10-17T00:05:46.215Z,16.73
2022-10-17T00:08:16.635Z,16.73
2022-10-17T00:10:44.227Z,16.77
2022-10-17T00:13:11.797Z,16.03
2022-10-17T00:15:39.085Z,16.47
2022-10-17T00:18:05.898Z,16.07
2022-10-17T00:20:35.640Z,16.80
2022-10-17T00:23:02.673Z,17.10
2022-10-17T00:25:30.221Z,16.20
2022-10-17T00:27:57.022Z,17.57
2022-10-17T00:30:24.045Z,16.77
2022-10-17T00:32:50.837Z,16.33
2022-10-17T00:35:17.968Z,16.37
2022-10-17T00:37:44.733Z,16.90
2022-10-17T00:40:11.869Z,18.27
2022-10-17T00:42:38.810Z,17.17
2022-10-17T00:45:22.178Z,17.37
2022-10-17T00:47:56.071Z,17.00
2022-10-17T00:50:24.725Z,16.80
2022-10-17T00:52:52.983Z,17.40
2022-10-17T00:55:30.862Z,17.03
2022-10-17T00:57:59.973Z,17.33
2022-10-17T01:00:26.946Z,17.10
2022-10-17T01:02:53.708Z,17.70
2022-10-17T01:05:21.341Z,17.07
2022-10-17T01:07:50.827Z,16.67
2022-10-17T01:10:18.483Z,17.20
2022-10-17T01:13:16.282Z,17.17
2022-10-17T01:15:57.028Z,17.67
2022-10-17T01:19:08.462Z,17.57
2022-10-17T01:21:56.991Z,17.27
2022-10-17T01:24:40.791Z,17.93
2022-10-17T01:27:40.279Z,17.77
2022-10-17T01:30:21.372Z,17.27
2022-10-17T01:32:57.277Z,17.70
2022-10-17T01:36:05.781Z,17.57
2022-10-17T01:38:47.513Z,18.13
2022-10-17T01:41:25.806Z,17.40
2022-10-17T01:44:21.906Z,17.80
2022-10-17T01:46:54.578Z,18.20
2022-10-17T01:49:27.677Z,17.60
2022-10-17T01:52:01.002Z,17.67
2022-10-17T01:54:53.962Z,17.30
2022-10-17T01:57:25.220Z,16.97
2022-10-17T01:59:57.382Z,17.77
2022-10-17T02:02:26.307Z,17.53
2022-10-17T02:04:55.631Z,17.73
2022-10-17T02:07:22.709Z,16.97
2022-10-17T02:09:49.699Z,16.10
2022-10-17T02:12:25.108Z,16.43
2022-10-17T02:15:19.289Z,16.43
2022-10-17T02:17:59.790Z,16.47
2022-10-17T02:20:54.654Z,16.73
2022-10-17T02:23:53.689Z,15.90
2022-10-17T02:26:36.633Z,17.03
2022-10-17T02:29:13.544Z,15.97
2022-10-17T02:31:52.077Z,16.23
2022-10-17T02:34:50.559Z,15.57
2022-10-17T02:37:22.902Z,15.90
2022-10-17T02:39:51.107Z,16.57
2022-10-17T02:42:20.160Z,15.93
2022-10-17T02:44:47.913Z,15.97
2022-10-17T02:47:33.293Z,16.30
2022-10-17T02:50:00.834Z,15.57
2022-10-17T02:52:39.011Z,15.77
2022-10-17T02:55:25.073Z,15.47
2022-10-17T02:57:56.835Z,15.67
2022-10-17T03:00:26.481Z,16.73
2022-10-17T03:02:54.743Z,16.80
2022-10-17T03:05:29.636Z,15.73
2022-10-17T03:07:56.997Z,16.77
2022-10-17T03:10:24.168Z,16.50
2022-10-17T03:12:50.951Z,18.73
2022-10-17T03:15:17.828Z,17.50
2022-10-17T03:20:12.449Z,16.87
2022-10-17T03:22:39.321Z,16.80
2022-10-17T03:25:06.685Z,17.57
2022-10-17T03:27:33.592Z,18.20
2022-10-17T03:30:00.391Z,16.90
2022-10-17T03:32:27.322Z,17.90
2022-10-17T03:34:54.096Z,17.87
2022-10-17T03:37:20.871Z,18.57
2022-10-17T03:39:48.033Z,19.70
2022-10-17T03:42:14.854Z,19.10
2022-10-17T03:44:42.071Z,19.60
2022-10-17T03:47:11.844Z,19.60
2022-10-17T03:49:41.074Z,18.47
2022-10-17T03:52:12.576Z,19.07
2022-10-17T03:54:39.667Z,18.93
2022-10-17T03:57:06.492Z,18.63
2022-10-17T03:59:33.304Z,18.37
2022-10-17T04:02:00.103Z,19.87
2022-10-17T04:04:26.937Z,18.77
2022-10-17T04:06:53.846Z,19.47
2022-10-17T04:09:20.613Z,20.53
2022-10-17T04:11:47.532Z,19.63
2022-10-17T04:14:14.475Z,20.67
2022-10-17T04:16:41.317Z,19.43
2022-10-17T04:19:08.065Z,19.33
2022-10-17T04:21:34.830Z,18.73
2022-10-17T04:24:01.642Z,19.23
2022-10-17T04:26:28.495Z,18.70
2022-10-17T04:28:55.376Z,18.73
2022-10-17T04:31:22.392Z,18.50
2022-10-17T04:33:50.307Z,17.63
2022-10-17T04:36:19.648Z,18.00
2022-10-17T04:38:46.903Z,17.23
2022-10-17T04:41:16.268Z,17.97
2022-10-17T04:43:45.657Z,18.50
2022-10-17T04:46:15.826Z,18.57
2022-10-17T04:48:43.047Z,19.00
2022-10-17T04:51:15.512Z,18.17
2022-10-17T04:53:43.463Z,20.43
2022-10-17T04:56:17.884Z,19.37
2022-10-17T04:58:45.706Z,19.37
2022-10-17T05:01:15.624Z,20.67
2022-10-17T05:03:42.925Z,18.50
2022-10-17T05:06:12.222Z,20.33
2022-10-17T05:08:39.260Z,20.50
2022-10-17T05:11:15.012Z,21.60
2022-10-17T05:13:41.771Z,21.57
2022-10-17T05:16:08.565Z,22.53
2022-10-17T05:18:35.362Z,22.17
2022-10-17T05:21:04.376Z,21.93
2022-10-17T05:23:31.182Z,21.67
2022-10-17T05:25:57.989Z,22.20
2022-10-17T05:28:25.096Z,22.67
2022-10-17T05:30:51.974Z,23.90
2022-10-17T05:33:19.146Z,22.83
2022-10-17T05:35:45.999Z,21.77
2022-10-17T05:38:12.787Z,22.33
2022-10-17T05:40:39.587Z,22.30
2022-10-17T05:43:06.467Z,22.50
2022-10-17T05:45:33.285Z,23.37
2022-10-17T05:48:00.115Z,23.37
2022-10-17T05:50:26.969Z,22.10
2022-10-17T05:52:54.717Z,22.97
2022-10-17T05:55:22.325Z,22.10
2022-10-17T05:57:50.519Z,21.43
2022-10-17T06:00:17.580Z,21.53
2022-10-17T06:02:59.915Z,21.20
2022-10-17T06:05:26.911Z,21.40
2022-10-17T06:07:58.312Z,20.40
2022-10-17T06:10:29.174Z,20.57
2022-10-17T06:12:59.260Z,19.40
2022-10-17T06:15:26.117Z,20.03
2022-10-17T06:17:52.892Z,19.47
2022-10-17T06:20:19.801Z,19.23
2022-10-17T06:22:46.761Z,19.70
2022-10-17T06:25:14.976Z,18.30
2022-10-17T06:27:41.846Z,19.27
2022-10-17T06:30:08.983Z,18.90
2022-10-17T06:32:42.224Z,18.70
2022-10-17T06:35:09.236Z,19.63
2022-10-17T06:37:37.873Z,18.10
2022-10-17T06:40:07.937Z,19.63
2022-10-17T06:42:34.924Z,19.33
2022-10-17T06:45:01.781Z,19.53
2022-10-17T06:47:29.096Z,20.37
2022-10-17T06:49:56.046Z,19.23
2022-10-17T06:52:23.259Z,20.13
2022-10-17T06:57:35.774Z,21.17
2022-10-17T07:00:03.070Z,19.57
2022-10-17T07:02:30.073Z,19.87
2022-10-17T07:04:57.657Z,20.17
2022-10-17T07:07:24.502Z,20.83
2022-10-17T07:09:51.823Z,20.93
2022-10-17T07:12:18.616Z,21.27
2022-10-17T07:14:47.263Z,21.20
2022-10-17T07:17:14.127Z,20.33
2022-10-17T07:19:41.034Z,21.13
2022-10-17T07:22:08.144Z,19.70
2022-10-17T07:24:35.103Z,19.73
2022-10-17T07:27:02.165Z,19.80
2022-10-17T07:29:29.245Z,19.20
2022-10-17T07:31:56.707Z,18.70
2022-10-17T07:34:27.538Z,19.23
2022-10-17T07:36:54.508Z,18.83
2022-10-17T07:39:21.297Z,18.93
2022-10-17T07:41:49.590Z,18.57
2022-10-17T07:44:16.744Z,19.07
2022-10-17T07:46:43.640Z,18.80
2022-10-17T07:49:10.643Z,18.37
2022-10-17T07:51:37.739Z,18.37
2022-10-17T07:54:06.035Z,17.97
2022-10-17T07:56:33.772Z,16.80
2022-10-17T07:59:02.742Z,16.53
2022-10-17T08:01:32.156Z,17.40
2022-10-17T08:03:59.224Z,17.50
2022-10-17T08:06:26.522Z,17.17
2022-10-17T08:08:53.675Z,16.67
2022-10-17T08:11:25.343Z,16.20
2022-10-17T08:14:14.196Z,16.63
2022-10-17T08:16:55.299Z,15.13
2022-10-17T08:19:22.374Z,15.93
2022-10-17T08:21:52.207Z,16.03
2022-10-17T08:24:19.163Z,15.40
2022-10-17T08:26:48.240Z,15.40
2022-10-17T08:29:17.112Z,15.27
2022-10-17T08:31:47.718Z,15.63
2022-10-17T08:34:21.298Z,15.63
2022-10-17T08:36:48.636Z,15.70
2022-10-17T08:39:15.420Z,15.60
2022-10-17T08:42:10.091Z,14.53
2022-10-17T08:44:54.784Z,15.03
2022-10-17T08:47:45.400Z,15.40
2022-10-17T08:50:47.510Z,14.93
2022-10-17T08:53:51.977Z,14.70
2022-10-17T08:56:44.160Z,14.57
2022-10-17T08:59:31.081Z,15.13
2022-10-17T09:05:05.721Z,14.57
2022-10-17T09:15:01.343Z,14.07
2022-10-17T09:18:03.542Z,14.40
2022-10-17T09:20:45.988Z,14.07
2022-10-17T09:23:59.440Z,13.90
2022-10-17T09:26:36.569Z,13.73
2022-10-17T09:29:12.784Z,14.30
2022-10-17T09:31:45.241Z,14.17
2022-10-17T09:34:12.310Z,12.83
2022-10-17T09:36:40.928Z,13.90
2022-10-17T09:39:13.174Z,14.15
2022-10-17T09:41:46.841Z,14.30
2022-10-17T09:44:16.981Z,13.38
2022-10-17T09:47:24.938Z,13.23
2022-10-17T09:49:51.850Z,13.50
2022-10-17T09:52:22.538Z,13.43
2022-10-17T09:54:50.693Z,12.65
2022-10-17T09:57:19.724Z,13.20
2022-10-17T09:59:59.990Z,12.85
2022-10-17T10:02:29.789Z,13.10
2022-10-17T10:05:18.919Z,12.25
2022-10-17T10:08:12.596Z,13.02
2022-10-17T10:10:44.283Z,12.60
2022-10-17T10:13:15.148Z,12.73
2022-10-17T10:15:47.652Z,12.70
2022-10-17T10:18:26.503Z,12.25
2022-10-17T10:21:13.921Z,12.77
2022-10-17T10:23:43.377Z,12.30
2022-10-17T10:26:58.069Z,11.70
2022-10-17T10:29:37.463Z,12.00
2022-10-17T10:32:24.619Z,11.82
2022-10-17T10:35:07.843Z,11.90
2022-10-17T10:37:44.625Z,11.82
2022-10-17T10:40:48.253Z,11.93
2022-10-17T10:43:42.898Z,11.30
2022-10-17T10:46:25.305Z,11.65
2022-10-17T10:49:14.969Z,11.57
2022-10-17T10:51:50.372Z,11.60
2022-10-17T10:54:26.597Z,11.50
2022-10-17T10:56:56.623Z,12.50
2022-10-17T10:59:58.413Z,11.55
2022-10-17T11:02:54.026Z,12.10
2022-10-17T11:05:41.641Z,12.23
2022-10-17T11:08:23.023Z,12.00
2022-10-17T11:11:14.434Z,11.30
2022-10-17T11:14:13.132Z,12.23
2022-10-17T11:20:33.812Z,12.10
2022-10-17T11:23:54.920Z,11.38
2022-10-17T11:27:05.783Z,11.50
2022-10-17T11:29:41.680Z,11.52
2022-10-17T11:32:12.249Z,11.38
2022-10-17T11:34:51.015Z,11.45
2022-10-17T11:37:32.604Z,11.23
2022-10-17T11:40:23.624Z,11.30
2022-10-17T11:43:14.708Z,10.70
2022-10-17T11:46:07.746Z,11.50
2022-10-17T11:49:24.284Z,11.75
2022-10-17T11:52:51.396Z,11.25
2022-10-17T11:55:46.535Z,11.23
2022-10-17T11:59:15.254Z,11.60
2022-10-17T12:01:54.423Z,11.02
2022-10-17T12:05:10.981Z,11.02
2022-10-17T12:08:20.285Z,11.80
2022-10-17T12:11:37.561Z,10.30
2022-10-17T12:14:43.847Z,10.82
2022-10-17T12:17:47.404Z,11.25
2022-10-17T12:24:28.664Z,11.13
2022-10-17T12:31:32.530Z,11.10
2022-10-17T13:58:57.592Z,12.00
2022-10-17T14:09:49.639Z,11.20
2022-10-17T14:28:35.237Z,12.40
2022-10-17T14:38:46.138Z,12.60
2022-10-17T14:48:46.317Z,11.60
2022-10-17T14:51:32.465Z,11.93
2022-10-17T14:54:35.207Z,12.10
2022-10-17T14:57:14.653Z,11.97
2022-10-17T14:59:57.681Z,11.53
2022-10-17T15:07:45.468Z,12.27
2022-10-17T15:10:43.306Z,12.03
2022-10-17T15:19:15.934Z,12.17
2022-10-17T15:22:00.687Z,12.40
2022-10-17T15:26:58.690Z,12.33
2022-10-17T15:29:29.285Z,12.43
2022-10-17T15:35:48.444Z,13.20
2022-10-17T15:38:36.580Z,12.90
2022-10-17T15:41:10.862Z,12.60
2022-10-17T15:43:37.780Z,12.70
2022-10-17T15:46:05.200Z,12.97
2022-10-17T15:48:35.205Z,13.40
2022-10-17T15:51:02.135Z,12.60
2022-10-17T15:53:41.342Z,13.83
2022-10-17T15:56:38.035Z,12.77
2022-10-17T15:59:20.021Z,12.80
2022-10-17T16:01:56.201Z,13.43
2022-10-17T16:06:58.804Z,13.70
2022-10-17T16:09:25.743Z,13.23
2022-10-17T16:11:52.596Z,13.77
2022-10-17T16:14:19.614Z,13.73
2022-10-17T16:16:46.390Z,14.27
2022-10-17T16:19:13.192Z,13.70
2022-10-17T16:21:41.598Z,14.03
2022-10-17T16:24:12.743Z,14.10
2022-10-17T16:26:40.846Z,14.37
2022-10-17T16:29:09.509Z,13.63
2022-10-17T16:31:39.852Z,14.70
2022-10-17T16:34:08.951Z,14.53
2022-10-17T16:36:35.889Z,14.27
2022-10-17T16:39:02.923Z,15.07
2022-10-17T16:41:53.577Z,14.63
2022-10-17T16:44:24.202Z,13.80
2022-10-17T16:46:51.122Z,14.20
2022-10-17T16:49:18.374Z,14.17
2022-10-17T16:51:45.289Z,14.30
2022-10-17T16:54:12.199Z,14.30
2022-10-17T16:56:39.211Z,14.13
2022-10-17T16:59:06.107Z,14.30
2022-10-17T17:01:33.021Z,14.43
2022-10-17T17:03:59.875Z,14.17
2022-10-17T17:06:28.871Z,17.20
2022-10-17T17:08:56.540Z,14.40
2022-10-17T17:11:25.931Z,14.20
2022-10-17T17:13:56.031Z,13.90
2022-10-17T17:16:24.746Z,14.17
2022-10-17T17:18:59.310Z,14.50
2022-10-17T17:21:28.030Z,13.97
2022-10-17T17:24:01.956Z,15.33
2022-10-17T17:26:38.020Z,14.73
2022-10-17T17:29:08.953Z,14.97
2022-10-17T17:31:40.822Z,15.57
2022-10-17T17:34:13.104Z,14.80
2022-10-17T17:36:45.737Z,14.83
2022-10-17T17:39:14.844Z,14.57
2022-10-17T17:41:42.853Z,15.70
2022-10-17T17:44:15.687Z,15.50
2022-10-17T17:46:47.676Z,14.80
2022-10-17T17:49:14.722Z,15.57
2022-10-17T17:51:51.505Z,15.03
2022-10-17T17:54:23.887Z,15.27
2022-10-17T17:56:50.674Z,14.70
2022-10-17T17:59:17.547Z,15.37
2022-10-17T18:01:44.512Z,15.07
2022-10-17T18:04:11.835Z,15.57
2022-10-17T18:06:39.820Z,15.93
2022-10-17T18:09:07.924Z,15.67
2022-10-17T18:11:36.129Z,15.97
2022-10-17T18:14:10.610Z,15.67
2022-10-17T18:16:37.994Z,15.00
2022-10-17T18:19:17.641Z,15.60
2022-10-17T18:21:44.613Z,15.47
2022-10-17T18:24:14.866Z,15.50
2022-10-17T18:26:41.777Z,15.30
2022-10-17T18:29:08.577Z,16.37
2022-10-17T18:34:18.708Z,16.10
2022-10-17T18:36:58.918Z,15.93
2022-10-17T18:39:25.992Z,15.67
2022-10-17T18:41:53.166Z,15.80
2022-10-17T18:44:20.244Z,15.30
2022-10-17T18:46:51.573Z,15.07
2022-10-17T18:49:27.694Z,15.50
2022-10-17T18:51:54.767Z,15.43
2022-10-17T18:54:22.352Z,15.43
2022-10-17T18:56:57.268Z,14.37
2022-10-17T18:59:27.613Z,17.40
2022-10-17T19:01:54.519Z,15.00
2022-10-17T19:04:21.867Z,14.10
2022-10-17T19:06:48.720Z,14.53
2022-10-17T19:09:16.669Z,15.33
2022-10-17T19:11:44.073Z,14.43
2022-10-17T19:14:15.022Z,14.47
2022-10-17T19:16:50.906Z,14.17
2022-10-17T19:19:34.208Z,15.03
2022-10-17T19:22:03.384Z,14.67
2022-10-17T19:24:30.302Z,14.50
2022-10-17T19:26:59.416Z,14.63
2022-10-17T19:29:28.468Z,14.00
2022-10-17T19:34:23.133Z,14.43
2022-10-17T19:36:50.011Z,14.40
2022-10-17T19:39:20.820Z,15.07
2022-10-17T19:41:48.303Z,15.07
2022-10-17T19:44:15.997Z,15.40
2022-10-17T19:46:47.159Z,15.30
2022-10-17T19:49:14.719Z,15.43
2022-10-17T19:51:41.848Z,15.63
2022-10-17T19:54:09.403Z,15.40
2022-10-17T19:56:38.115Z,15.37
2022-10-17T19:59:06.513Z,15.63
2022-10-17T20:01:36.618Z,15.53
2022-10-17T20:04:03.716Z,15.77
2022-10-17T20:06:31.791Z,16.10
2022-10-17T20:08:58.684Z,15.43
2022-10-17T20:11:27.681Z,15.53
2022-10-17T20:13:55.574Z,16.33
2022-10-17T20:16:25.975Z,15.13
2022-10-17T20:18:55.328Z,15.27
2022-10-17T20:21:25.177Z,15.93
2022-10-17T20:23:52.871Z,16.97
2022-10-17T20:26:37.500Z,16.53
2022-10-17T20:29:11.034Z,16.13
2022-10-17T20:31:39.459Z,16.77
2022-10-17T20:34:06.343Z,16.50
2022-10-17T20:36:37.111Z,16.13
2022-10-17T20:39:05.790Z,17.00
2022-10-17T20:41:32.682Z,16.97
2022-10-17T20:43:59.492Z,17.13
2022-10-17T20:49:16.739Z,16.03
2022-10-17T20:51:44.518Z,17.47
2022-10-17T20:54:11.905Z,17.20
2022-10-17T20:56:39.216Z,16.50
2022-10-17T20:59:12.248Z,16.93
2022-10-17T21:01:39.539Z,17.07
2022-10-17T21:04:33.371Z,17.07
2022-10-17T21:06:59.687Z,16.03
2022-10-17T21:09:26.642Z,16.47
2022-10-17T21:11:55.714Z,16.50
2022-10-17T21:14:24.526Z,16.70
2022-10-17T21:16:52.324Z,16.40
2022-10-17T21:19:19.447Z,16.53
2022-10-17T21:21:46.797Z,16.97
2022-10-17T21:24:18.095Z,16.27
2022-10-17T21:26:47.115Z,16.97
2022-10-17T21:29:14.327Z,17.27
2022-10-17T21:31:43.315Z,16.30
2022-10-17T21:34:17.700Z,16.23
2022-10-17T21:36:45.242Z,17.00
2022-10-17T21:39:13.450Z,15.67
2022-10-17T21:41:40.673Z,15.67
2022-10-17T21:44:12.438Z,16.40
2022-10-17T21:46:39.336Z,16.50
2022-10-17T21:49:06.449Z,16.40
2022-10-17T21:51:33.327Z,16.17
2022-10-17T21:54:00.282Z,16.87
2022-10-17T21:56:29.888Z,16.37
2022-10-17T21:58:58.255Z,15.80
2022-10-17T22:01:28.655Z,15.90
2022-10-17T22:03:58.444Z,16.80
2022-10-17T22:06:43.743Z,16.23
2022-10-17T22:09:22.667Z,16.70
2022-10-17T22:11:52.433Z,16.77
2022-10-17T22:14:21.360Z,15.77
2022-10-17T22:16:49.256Z,16.63
2022-10-17T22:19:19.965Z,16.57
2022-10-17T22:21:47.073Z,16.07
2022-10-17T22:24:17.577Z,16.40
2022-10-17T22:26:44.911Z,17.00
2022-10-17T22:29:12.759Z,17.70
2022-10-17T22:31:40.175Z,16.93
2022-10-17T22:34:08.422Z,17.13
2022-10-17T22:36:35.909Z,17.07
2022-10-17T22:39:03.751Z,17.37
2022-10-17T22:41:30.672Z,16.67
2022-10-17T22:43:57.518Z,17.17
2022-10-17T22:46:24.664Z,17.50
2022-10-17T22:48:51.468Z,17.07
2022-10-17T22:51:18.379Z,17.13
2022-10-17T22:53:45.246Z,16.63
2022-10-17T22:56:15.581Z,17.23
2022-10-17T22:58:42.623Z,16.90
2022-10-17T23:01:15.920Z,16.83
2022-10-17T23:03:43.278Z,16.87
2022-10-17T23:06:10.266Z,16.17
2022-10-17T23:08:37.459Z,16.13
2022-10-17T23:11:05.282Z,16.73
2022-10-17T23:13:32.067Z,15.57
2022-10-17T23:15:58.987Z,16.20
2022-10-17T23:18:27.039Z,16.43
2022-10-17T23:20:54.436Z,15.93
2022-10-17T23:23:21.932Z,16.53
2022-10-17T23:25:49.828Z,16.23
2022-10-17T23:28:17.053Z,16.17
2022-10-17T23:30:44.328Z,15.57
2022-10-17T23:33:12.979Z,16.87
2022-10-17T23:35:40.513Z,16.77
2022-10-17T23:38:07.539Z,16.37
2022-10-17T23:40:35.502Z,16.80
2022-10-17T23:43:03.441Z,16.40
2022-10-17T23:45:34.674Z,16.07
2022-10-17T23:48:04.891Z,15.63
2022-10-17T23:50:31.896Z,15.20
2022-10-17T23:52:58.829Z,15.97
2022-10-17T23:55:25.848Z,15.77
2022-10-17T23:57:53.131Z,15.30
